createdAt,value
2022-09-21T00:00:44.741Z,74.20
2022-09-21T00:03:11.587Z,75.10
2022-09-21T00:05:38.320Z,74.20
2022-09-21T00:08:05.908Z,74.40
2022-09-21T00:10:32.710Z,74.40
2022-09-21T00:13:00.227Z,74.40
2022-09-21T00:15:26.982Z,74.20
2022-09-21T00:17:54.013Z,74.10
2022-09-21T00:20:21.749Z,74.20
2022-09-21T00:22:48.588Z,74.30
2022-09-21T00:25:15.416Z,74.30
2022-09-21T00:27:42.214Z,74.40
2022-09-21T00:30:09.848Z,74.50
2022-09-21T00:32:37.522Z,74.40
2022-09-21T00:35:05.036Z,74.50
2022-09-21T00:37:31.716Z,74.50
2022-09-21T00:39:58.507Z,74.50
2022-09-21T00:42:27.588Z,74.50
2022-09-21T00:44:54.396Z,74.60
2022-09-21T00:47:35.392Z,74.80
2022-09-21T00:50:08.329Z,74.80
2022-09-21T00:52:37.634Z,74.70
2022-09-21T00:55:12.493Z,74.80
2022-09-21T00:57:39.247Z,74.70
2022-09-21T01:00:08.831Z,74.60
2022-09-21T01:02:38.818Z,74.60
2022-09-21T01:05:06.652Z,74.60
2022-09-21T01:07:35.241Z,74.70
2022-09-21T01:10:05.262Z,74.50
2022-09-21T01:12:42.278Z,74.70
2022-09-21T01:15:14.737Z,74.80
2022-09-21T01:17:56.508Z,74.50
2022-09-21T01:21:04.459Z,74.50
2022-09-21T01:23:45.665Z,74.70
2022-09-21T01:26:40.896Z,75.60
2022-09-21T01:29:12.713Z,74.90
2022-09-21T01:31:49.803Z,75.00
2022-09-21T01:34:44.399Z,74.90
2022-09-21T01:37:14.757Z,74.90
2022-09-21T01:39:42.282Z,75.00
2022-09-21T01:42:09.071Z,74.90
2022-09-21T01:44:35.736Z,74.70
2022-09-21T01:47:03.209Z,74.90
2022-09-21T01:49:41.299Z,75.00
2022-09-21T01:52:31.705Z,75.00
2022-09-21T01:55:24.244Z,75.00
2022-09-21T01:58:05.786Z,75.00
2022-09-21T02:00:32.757Z,75.00
2022-09-21T02:03:12.795Z,74.80
2022-09-21T02:05:40.367Z,74.90
2022-09-21T02:08:07.501Z,75.00
2022-09-21T02:10:37.035Z,75.00
2022-09-21T02:13:05.635Z,75.00
2022-09-21T02:15:56.006Z,75.00
2022-09-21T02:18:31.327Z,75.00
2022-09-21T02:20:58.759Z,74.70
2022-09-21T02:24:04.194Z,75.30
2022-09-21T02:26:35.101Z,74.80
2022-09-21T02:29:16.176Z,74.80
2022-09-21T02:32:11.559Z,75.50
2022-09-21T02:34:46.330Z,75.00
2022-09-21T02:37:24.637Z,75.10
2022-09-21T02:40:10.514Z,75.30
2022-09-21T02:42:40.725Z,75.40
2022-09-21T02:45:14.254Z,75.30
2022-09-21T02:47:48.243Z,75.30
2022-09-21T02:50:21.294Z,75.20
2022-09-21T02:52:48.380Z,75.20
2022-09-21T02:55:15.357Z,75.30
2022-09-21T02:57:42.089Z,75.70
2022-09-21T03:00:09.669Z,75.40
2022-09-21T03:02:40.140Z,75.40
2022-09-21T03:05:07.537Z,75.40
2022-09-21T03:07:34.413Z,75.40
2022-09-21T03:10:01.159Z,75.40
2022-09-21T03:12:27.963Z,75.40
2022-09-21T03:14:56.019Z,75.40
2022-09-21T03:17:22.687Z,76.20
2022-09-21T03:19:49.456Z,75.40
2022-09-21T03:22:17.968Z,75.20
2022-09-21T03:24:47.380Z,75.20
2022-09-21T03:27:18.211Z,75.30
2022-09-21T03:29:45.300Z,75.40
2022-09-21T03:32:12.152Z,75.40
2022-09-21T03:34:38.915Z,75.40
2022-09-21T03:37:06.408Z,75.50
2022-09-21T03:39:33.197Z,75.50
2022-09-21T03:42:00.472Z,75.50
2022-09-21T03:44:27.215Z,75.50
2022-09-21T03:46:54.093Z,75.50
2022-09-21T03:49:20.842Z,75.40
2022-09-21T03:51:47.602Z,75.70
2022-09-21T03:54:14.843Z,75.50
2022-09-21T03:56:41.608Z,75.70
2022-09-21T03:59:11.908Z,75.60
2022-09-21T04:01:40.975Z,75.60
2022-09-21T04:04:07.713Z,75.70
2022-09-21T04:06:34.545Z,75.70
2022-09-21T04:09:02.978Z,75.70
2022-09-21T04:11:30.124Z,75.70
2022-09-21T04:13:57.030Z,75.70
2022-09-21T04:16:25.450Z,75.70
2022-09-21T04:18:52.191Z,75.70
2022-09-21T04:21:19.313Z,75.50
2022-09-21T04:23:46.108Z,75.60
2022-09-21T04:26:30.221Z,75.60
2022-09-21T04:28:57.119Z,75.70
2022-09-21T04:31:24.362Z,75.70
2022-09-21T04:33:51.679Z,75.70
2022-09-21T04:36:19.004Z,75.70
2022-09-21T04:38:45.998Z,75.80
2022-09-21T04:41:12.961Z,75.80
2022-09-21T04:43:42.781Z,75.70
2022-09-21T04:46:11.073Z,75.80
2022-09-21T04:48:37.940Z,76.00
2022-09-21T04:51:06.361Z,75.90
2022-09-21T04:53:33.693Z,76.00
2022-09-21T04:56:00.673Z,76.10
2022-09-21T04:58:27.861Z,76.00
2022-09-21T05:00:57.248Z,75.90
2022-09-21T05:03:24.927Z,75.80
2022-09-21T05:05:53.167Z,75.70
2022-09-21T05:08:42.733Z,75.70
2022-09-21T05:11:15.910Z,75.80
2022-09-21T05:13:42.663Z,75.80
2022-09-21T05:16:09.582Z,75.60
2022-09-21T05:18:36.420Z,75.70
2022-09-21T05:21:03.649Z,75.80
2022-09-21T05:23:30.882Z,75.90
2022-09-21T05:25:58.196Z,75.90
2022-09-21T05:28:25.645Z,75.90
2022-09-21T05:31:16.770Z,76.00
2022-09-21T05:33:55.071Z,76.10
2022-09-21T05:36:42.017Z,76.20
2022-09-21T05:39:09.010Z,76.20
2022-09-21T05:41:36.097Z,76.30
2022-09-21T05:44:02.973Z,76.30
2022-09-21T05:46:39.914Z,76.20
2022-09-21T05:49:19.517Z,76.20
2022-09-21T05:51:58.037Z,76.20
2022-09-21T05:54:45.975Z,76.30
2022-09-21T05:57:17.637Z,76.20
2022-09-21T05:59:47.072Z,76.10
2022-09-21T06:02:41.742Z,76.10
2022-09-21T06:05:11.924Z,76.10
2022-09-21T06:07:38.671Z,76.10
2022-09-21T06:10:05.845Z,76.20
2022-09-21T06:12:32.905Z,77.10
2022-09-21T06:14:59.590Z,76.40
2022-09-21T06:17:27.479Z,76.30
2022-09-21T06:19:54.383Z,76.30
2022-09-21T06:22:21.141Z,76.50
2022-09-21T06:24:47.828Z,77.20
2022-09-21T06:27:14.500Z,76.50
2022-09-21T06:29:41.168Z,76.50
2022-09-21T06:32:07.900Z,76.60
2022-09-21T06:34:34.619Z,76.30
2022-09-21T06:37:01.352Z,76.20
2022-09-21T06:39:28.187Z,76.40
2022-09-21T06:41:55.475Z,76.50
2022-09-21T06:44:22.219Z,76.40
2022-09-21T06:46:48.935Z,76.40
2022-09-21T06:49:15.671Z,76.40
2022-09-21T06:51:43.300Z,76.40
2022-09-21T06:54:10.344Z,76.50
2022-09-21T06:56:38.160Z,77.30
2022-09-21T06:59:04.872Z,76.50
2022-09-21T07:01:31.666Z,76.60
2022-09-21T07:03:58.416Z,76.70
2022-09-21T07:06:25.135Z,76.80
2022-09-21T07:11:41.469Z,76.90
2022-09-21T07:14:08.271Z,77.30
2022-09-21T07:16:35.095Z,77.00
2022-09-21T07:19:11.192Z,76.80
2022-09-21T07:21:38.418Z,76.90
2022-09-21T07:24:09.512Z,76.90
2022-09-21T07:26:37.880Z,77.00
2022-09-21T07:29:04.729Z,76.90
2022-09-21T07:31:31.582Z,76.80
2022-09-21T07:33:59.198Z,76.60
2022-09-21T07:36:25.931Z,76.50
2022-09-21T07:38:53.481Z,76.60
2022-09-21T07:41:20.290Z,76.50
2022-09-21T07:43:47.256Z,76.70
2022-09-21T07:46:14.627Z,76.90
2022-09-21T07:48:41.399Z,77.10
2022-09-21T07:51:10.039Z,77.00
2022-09-21T07:53:37.733Z,77.00
2022-09-21T07:56:05.848Z,77.10
2022-09-21T07:58:51.051Z,77.20
2022-09-21T08:01:18.017Z,76.10
2022-09-21T08:03:44.838Z,76.00
2022-09-21T08:06:11.525Z,76.00
2022-09-21T08:08:41.694Z,75.60
2022-09-21T08:11:08.709Z,75.40
2022-09-21T08:13:35.451Z,75.50
2022-09-21T08:16:02.712Z,75.70
2022-09-21T08:18:29.764Z,75.90
2022-09-21T08:21:00.515Z,76.00
2022-09-21T08:23:29.073Z,75.90
2022-09-21T08:26:02.841Z,76.20
2022-09-21T08:28:31.195Z,76.20
2022-09-21T08:31:01.615Z,76.40
2022-09-21T08:33:29.687Z,76.60
2022-09-21T08:35:58.140Z,76.50
2022-09-21T08:38:25.226Z,76.60
2022-09-21T08:40:52.200Z,76.70
2022-09-21T08:43:40.517Z,76.80
2022-09-21T08:46:09.774Z,76.50
2022-09-21T08:48:40.179Z,76.50
2022-09-21T08:51:09.370Z,76.50
2022-09-21T08:53:46.606Z,76.50
2022-09-21T08:56:14.100Z,76.50
2022-09-21T08:58:41.251Z,76.60
2022-09-21T09:01:20.491Z,76.80
2022-09-21T09:04:10.503Z,76.80
2022-09-21T09:07:15.389Z,76.00
2022-09-21T09:09:44.923Z,76.00
2022-09-21T09:12:43.892Z,76.10
2022-09-21T09:15:29.656Z,76.00
2022-09-21T09:18:02.255Z,76.00
2022-09-21T09:20:38.321Z,75.70
2022-09-21T09:23:19.196Z,74.70
2022-09-21T09:25:47.304Z,75.00
2022-09-21T09:28:25.397Z,74.90
2022-09-21T09:31:02.575Z,75.10
2022-09-21T09:33:57.872Z,75.50
2022-09-21T09:36:53.984Z,75.70
2022-09-21T09:39:15.694Z,75.40
2022-09-21T09:42:22.041Z,75.90
2022-09-21T09:45:13.847Z,75.50
2022-09-21T09:48:02.614Z,74.90
2022-09-21T09:50:31.892Z,74.60
2022-09-21T09:53:14.321Z,74.40
2022-09-21T09:55:49.524Z,74.90
2022-09-21T09:58:38.505Z,73.80
2022-09-21T10:01:05.440Z,74.20
2022-09-21T10:03:32.188Z,73.80
2022-09-21T10:05:58.863Z,72.30
2022-09-21T10:08:42.199Z,71.60
2022-09-21T10:11:10.029Z,69.30
2022-09-21T10:13:38.255Z,68.70
2022-09-21T10:16:11.942Z,68.80
2022-09-21T10:18:46.787Z,69.20
2022-09-21T10:21:20.550Z,69.20
2022-09-21T10:23:49.495Z,70.20
2022-09-21T10:26:16.229Z,70.80
2022-09-21T10:29:03.088Z,70.10
2022-09-21T10:31:30.817Z,68.90
2022-09-21T10:34:16.433Z,68.80
2022-09-21T10:36:52.104Z,67.80
2022-09-21T10:39:32.309Z,68.00
2022-09-21T10:42:03.077Z,67.80
2022-09-21T10:44:43.405Z,68.00
2022-09-21T10:47:36.743Z,67.90
2022-09-21T10:50:23.218Z,67.40
2022-09-21T10:52:49.910Z,67.70
2022-09-21T10:55:18.319Z,67.70
2022-09-21T10:57:45.088Z,67.50
2022-09-21T11:00:31.792Z,67.90
2022-09-21T11:03:01.019Z,67.90
2022-09-21T11:05:36.979Z,68.10
2022-09-21T11:08:18.347Z,68.50
2022-09-21T11:11:23.573Z,69.80
2022-09-21T11:13:56.543Z,69.80
2022-09-21T11:16:25.210Z,69.80
2022-09-21T11:19:04.819Z,70.70
2022-09-21T11:21:55.923Z,71.00
2022-09-21T11:24:52.077Z,71.30
2022-09-21T11:27:21.768Z,71.40
2022-09-21T11:30:11.434Z,71.60
2022-09-21T11:32:47.326Z,71.60
2022-09-21T11:35:28.988Z,71.70
2022-09-21T11:37:58.501Z,71.60
2022-09-21T11:40:49.033Z,71.70
2022-09-21T11:43:31.889Z,71.50
2022-09-21T11:46:16.430Z,71.40
2022-09-21T11:49:16.960Z,69.40
2022-09-21T11:52:02.381Z,69.50
2022-09-21T11:54:40.810Z,68.30
2022-09-21T11:57:28.403Z,68.50
2022-09-21T12:00:04.162Z,69.00
2022-09-21T12:02:52.085Z,67.70
2022-09-21T12:05:43.079Z,68.00
2022-09-21T12:08:47.469Z,67.70
2022-09-21T12:11:24.661Z,67.80
2022-09-21T12:13:55.097Z,67.90
2022-09-21T12:16:45.394Z,68.20
2022-09-21T12:19:44.696Z,68.20
2022-09-21T12:22:41.697Z,67.30
2022-09-21T12:25:20.418Z,66.40
2022-09-21T12:27:56.858Z,67.10
2022-09-21T12:30:24.060Z,67.40
2022-09-21T12:32:57.113Z,65.10
2022-09-21T12:35:36.860Z,64.60
2022-09-21T12:38:24.388Z,63.60
2022-09-21T12:41:03.326Z,64.90
2022-09-21T12:43:45.467Z,65.50
2022-09-21T12:46:20.577Z,66.20
2022-09-21T12:48:47.783Z,66.00
2022-09-21T12:51:27.074Z,65.80
2022-09-21T12:53:55.173Z,66.20
2022-09-21T12:56:44.185Z,66.80
2022-09-21T12:59:17.048Z,67.00
2022-09-21T13:02:12.273Z,67.10
2022-09-21T13:05:07.314Z,67.10
2022-09-21T13:08:04.515Z,67.20
2022-09-21T13:10:42.756Z,66.50
2022-09-21T13:13:26.371Z,66.50
2022-09-21T13:15:53.162Z,66.00
2022-09-21T13:18:39.106Z,66.30
2022-09-21T13:21:26.322Z,66.80
2022-09-21T13:24:01.873Z,66.30
2022-09-21T13:26:38.027Z,66.80
2022-09-21T13:29:26.009Z,66.80
2022-09-21T13:31:57.581Z,67.00
2022-09-21T13:34:26.055Z,66.60
2022-09-21T13:37:11.191Z,66.40
2022-09-21T13:39:50.292Z,66.70
2022-09-21T13:42:34.876Z,66.50
2022-09-21T13:45:24.075Z,66.50
2022-09-21T13:47:55.448Z,66.50
2022-09-21T13:50:25.106Z,66.20
2022-09-21T13:52:54.076Z,66.40
2022-09-21T13:55:29.258Z,66.50
2022-09-21T13:57:56.828Z,66.70
2022-09-21T14:00:28.217Z,66.80
2022-09-21T14:03:04.215Z,66.60
2022-09-21T14:05:44.414Z,66.70
2022-09-21T14:08:19.882Z,66.90
2022-09-21T14:10:53.661Z,66.90
2022-09-21T14:13:41.937Z,65.50
2022-09-21T14:16:37.381Z,65.30
2022-09-21T14:19:19.444Z,63.60
2022-09-21T14:22:07.418Z,64.60
2022-09-21T14:24:42.130Z,64.40
2022-09-21T14:27:25.275Z,64.60
2022-09-21T14:30:04.776Z,64.80
2022-09-21T14:32:41.435Z,64.90
2022-09-21T14:35:19.399Z,64.00
2022-09-21T14:37:52.098Z,63.30
2022-09-21T14:40:25.654Z,62.90
2022-09-21T14:42:56.489Z,63.40
2022-09-21T14:45:54.704Z,63.70
2022-09-21T14:48:46.722Z,63.80
2022-09-21T14:51:44.099Z,64.30
2022-09-21T14:54:23.455Z,64.50
2022-09-21T14:57:04.764Z,63.70
2022-09-21T14:59:47.748Z,63.30
2022-09-21T15:02:28.854Z,63.60
2022-09-21T15:05:04.100Z,63.50
2022-09-21T15:08:21.247Z,63.40
2022-09-21T15:11:10.195Z,63.30
2022-09-21T15:13:58.339Z,62.90
2022-09-21T15:16:34.766Z,63.20
2022-09-21T15:19:35.241Z,63.10
2022-09-21T15:22:18.869Z,61.90
2022-09-21T15:24:56.106Z,63.00
2022-09-21T15:27:24.520Z,61.90
2022-09-21T15:29:53.778Z,61.20
2022-09-21T15:32:36.727Z,61.90
2022-09-21T15:35:06.902Z,62.40
2022-09-21T15:37:37.323Z,61.30
2022-09-21T15:40:06.462Z,60.00
2022-09-21T15:42:34.060Z,59.40
2022-09-21T15:45:15.089Z,59.10
2022-09-21T15:47:44.978Z,59.20
2022-09-21T15:50:14.851Z,59.00
2022-09-21T15:53:04.628Z,59.50
2022-09-21T15:55:32.419Z,59.30
2022-09-21T15:57:59.187Z,59.20
2022-09-21T16:00:31.706Z,58.60
2022-09-21T16:03:06.943Z,58.90
2022-09-21T16:05:45.916Z,58.80
2022-09-21T16:08:35.197Z,58.70
2022-09-21T16:11:12.174Z,59.00
2022-09-21T16:14:11.331Z,59.00
2022-09-21T16:17:04.847Z,59.10
2022-09-21T16:19:59.764Z,59.30
2022-09-21T16:22:44.260Z,59.40
2022-09-21T16:25:30.475Z,59.50
2022-09-21T16:27:59.458Z,59.90
2022-09-21T16:30:41.858Z,60.50
2022-09-21T16:33:59.841Z,60.30
2022-09-21T16:36:26.519Z,60.90
2022-09-21T16:38:53.614Z,60.90
2022-09-21T16:41:21.375Z,60.70
2022-09-21T16:43:51.011Z,61.20
2022-09-21T16:46:18.393Z,61.30
2022-09-21T16:48:45.244Z,61.10
2022-09-21T16:51:12.432Z,61.40
2022-09-21T16:53:39.168Z,61.40
2022-09-21T16:56:07.012Z,61.70
2022-09-21T16:58:33.709Z,62.00
2022-09-21T17:01:01.233Z,61.70
2022-09-21T17:03:30.722Z,61.90
2022-09-21T17:05:57.538Z,62.00
2022-09-21T17:08:24.555Z,63.00
2022-09-21T17:10:51.428Z,62.20
2022-09-21T17:13:19.247Z,62.50
2022-09-21T17:15:47.241Z,62.50
2022-09-21T17:18:14.130Z,62.40
2022-09-21T17:20:42.621Z,62.60
2022-09-21T17:23:09.389Z,63.00
2022-09-21T17:25:36.224Z,63.20
2022-09-21T17:28:06.801Z,63.00
2022-09-21T17:30:34.948Z,63.10
2022-09-21T17:33:01.755Z,63.10
2022-09-21T17:35:36.121Z,63.10
2022-09-21T17:38:02.835Z,63.10
2022-09-21T17:40:30.068Z,63.30
2022-09-21T17:43:22.211Z,63.70
2022-09-21T17:46:00.864Z,63.70
2022-09-21T17:48:33.211Z,63.80
2022-09-21T17:51:00.928Z,63.50
2022-09-21T17:53:34.507Z,63.90
2022-09-21T17:56:26.212Z,64.00
2022-09-21T17:58:57.913Z,63.60
2022-09-21T18:01:37.781Z,63.70
2022-09-21T18:04:05.190Z,63.90
2022-09-21T18:06:32.746Z,63.90
2022-09-21T18:08:59.808Z,64.20
2022-09-21T18:11:44.899Z,63.80
2022-09-21T18:14:21.394Z,63.90
2022-09-21T18:17:07.680Z,64.10
2022-09-21T18:19:46.262Z,64.00
2022-09-21T18:22:28.726Z,64.20
2022-09-21T18:24:56.059Z,64.20
2022-09-21T18:27:23.926Z,64.30
2022-09-21T18:29:50.783Z,64.40
2022-09-21T18:32:32.195Z,64.20
2022-09-21T18:35:17.475Z,64.00
2022-09-21T18:38:08.697Z,63.90
2022-09-21T18:40:53.900Z,64.00
2022-09-21T18:43:49.052Z,63.90
2022-09-21T18:46:39.172Z,64.00
2022-09-21T18:49:09.518Z,64.10
2022-09-21T18:51:57.474Z,64.10
2022-09-21T18:54:27.247Z,64.00
2022-09-21T18:56:55.441Z,63.90
2022-09-21T18:59:22.637Z,65.20
2022-09-21T19:01:50.671Z,65.40
2022-09-21T19:04:20.108Z,65.50
2022-09-21T19:06:51.722Z,65.60
2022-09-21T19:09:44.872Z,65.60
2022-09-21T19:12:39.129Z,65.60
2022-09-21T19:15:59.051Z,65.30
2022-09-21T19:18:30.538Z,65.40
2022-09-21T19:20:59.304Z,65.30
2022-09-21T19:23:44.455Z,65.40
2022-09-21T19:26:49.299Z,65.30
2022-09-21T19:29:41.661Z,65.30
2022-09-21T19:32:14.887Z,65.30
2022-09-21T19:34:41.937Z,65.20
2022-09-21T19:37:09.392Z,65.20
2022-09-21T19:39:36.565Z,65.40
2022-09-21T19:42:20.518Z,65.40
2022-09-21T19:45:02.324Z,65.40
2022-09-21T19:47:29.908Z,65.50
2022-09-21T19:50:17.810Z,65.50
2022-09-21T19:52:44.988Z,65.70
2022-09-21T19:55:38.771Z,65.60
2022-09-21T19:58:24.388Z,65.60
2022-09-21T20:00:57.219Z,65.50
2022-09-21T20:03:31.723Z,65.50
2022-09-21T20:06:04.686Z,65.40
2022-09-21T20:08:46.021Z,65.40
2022-09-21T20:11:19.054Z,65.40
2022-09-21T20:14:01.136Z,65.50
2022-09-21T20:16:36.515Z,65.40
2022-09-21T20:19:21.811Z,65.40
2022-09-21T20:21:49.344Z,65.50
2022-09-21T20:24:34.726Z,65.50
2022-09-21T20:27:01.808Z,65.40
2022-09-21T20:29:28.509Z,65.40
2022-09-21T20:31:56.192Z,65.40
2022-09-21T20:34:22.954Z,65.50
2022-09-21T20:36:49.693Z,65.30
2022-09-21T20:39:16.440Z,65.50
2022-09-21T20:41:43.159Z,65.60
2022-09-21T20:44:11.310Z,65.10
2022-09-21T20:46:38.057Z,64.90
2022-09-21T20:49:05.373Z,65.00
2022-09-21T20:51:34.036Z,65.20
2022-09-21T20:54:04.359Z,65.20
2022-09-21T20:56:31.285Z,65.20
2022-09-21T20:58:58.067Z,65.10
2022-09-21T21:01:25.232Z,65.10
2022-09-21T21:03:52.165Z,65.20
2022-09-21T21:06:19.041Z,65.20
2022-09-21T21:08:46.138Z,64.90
2022-09-21T21:11:14.378Z,64.80
2022-09-21T21:13:41.273Z,64.70
2022-09-21T21:16:11.752Z,64.70
2022-09-21T21:18:40.284Z,64.70
2022-09-21T21:21:06.996Z,64.90
2022-09-21T21:23:53.685Z,65.00
2022-09-21T21:26:20.604Z,65.10
2022-09-21T21:28:47.386Z,65.20
2022-09-21T21:31:18.251Z,65.10
2022-09-21T21:33:48.126Z,66.00
2022-09-21T21:36:15.042Z,65.20
2022-09-21T21:38:43.150Z,65.20
2022-09-21T21:41:12.886Z,65.20
2022-09-21T21:43:40.254Z,64.60
2022-09-21T21:46:08.547Z,64.50
2022-09-21T21:48:36.212Z,64.50
2022-09-21T21:51:03.447Z,64.80
2022-09-21T21:53:33.264Z,65.00
2022-09-21T21:56:07.589Z,65.10
2022-09-21T21:58:34.452Z,65.20
2022-09-21T22:01:11.582Z,65.00
2022-09-21T22:03:39.028Z,65.00
2022-09-21T22:06:06.320Z,65.10
2022-09-21T22:08:33.367Z,65.10
2022-09-21T22:11:00.288Z,65.20
2022-09-21T22:13:32.995Z,65.40
2022-09-21T22:16:09.215Z,65.00
2022-09-21T22:18:36.087Z,64.70
2022-09-21T22:21:21.642Z,64.80
2022-09-21T22:24:02.164Z,64.80
2022-09-21T22:26:29.848Z,65.20
2022-09-21T22:28:58.311Z,65.30
2022-09-21T22:31:26.768Z,65.30
2022-09-21T22:33:54.088Z,65.10
2022-09-21T22:36:22.632Z,65.30
2022-09-21T22:38:49.525Z,65.50
2022-09-21T22:41:18.675Z,65.60
2022-09-21T22:43:46.201Z,65.80
2022-09-21T22:46:13.329Z,66.00
2022-09-21T22:48:40.049Z,66.00
2022-09-21T22:51:06.821Z,66.10
2022-09-21T22:53:33.565Z,66.10
2022-09-21T22:56:04.415Z,66.30
2022-09-21T22:58:32.229Z,66.40
2022-09-21T23:01:24.290Z,66.40
2022-09-21T23:03:53.305Z,66.50
2022-09-21T23:06:20.750Z,66.30
2022-09-21T23:08:49.182Z,66.20
2022-09-21T23:11:17.893Z,66.10
2022-09-21T23:13:44.549Z,66.00
2022-09-21T23:16:12.615Z,66.00
2022-09-21T23:18:40.100Z,66.20
2022-09-21T23:21:10.423Z,66.20
2022-09-21T23:23:37.224Z,66.30
2022-09-21T23:26:11.899Z,66.50
2022-09-21T23:28:39.593Z,66.40
2022-09-21T23:31:10.877Z,66.50
2022-09-21T23:33:42.846Z,66.70
2022-09-21T23:36:10.560Z,66.80
2022-09-21T23:38:37.880Z,66.80
2022-09-21T23:41:06.339Z,66.80
2022-09-21T23:43:33.262Z,66.90
2022-09-21T23:45:59.979Z,67.20
2022-09-21T23:48:27.040Z,67.20
2022-09-21T23:50:55.393Z,67.30
2022-09-21T23:53:22.574Z,67.20
2022-09-21T23:55:49.288Z,67.10
2022-09-21T23:58:16.233Z,67.30
